CheckWX is a tool to help pilots better visualize weather data.  It is not intended as a substitute for an official pre-flight weather briefing.

12:34:47 UTC

SAWG METAR
Piloto Civil N. Fernández Airport
Rio Gallegos, Argentina
Current

35 mins ago

SAWG 261200Z 23008KT 9999 FEW008 BKN020 M01/M02 Q0978
Observed
Jun-26 @ 12:00 UTC
Wind
  • 230° at 8 KTS
Visibility
10,000+ meters
Flight Rules
MVFR
Cloud Levels
  • Few at 800' AGL
  • Broken at 2,000' AGL
Temperature
-1°C / 30°F
Dewpoint
-2°C / 28°F
Humidity
93%
Altimeter
28.88" Hg
Pressure
977.92 hPa
Previous

2 hours ago

SAWG 261100Z 26010KT 9999 SCT004 BKN015 M01/M02 Q0977
Observed
Jun-26 @ 11:00 UTC
Wind
  • 260° at 10 KTS
Visibility
10,000+ meters
Flight Rules
MVFR
Cloud Levels
  • Scattered at 400' AGL
  • Broken at 1,500' AGL
Temperature
-1°C / 30°F
Dewpoint
-2°C / 28°F
Humidity
93%
Altimeter
28.85" Hg
Pressure
976.92 hPa
Previous

3 hours ago

SAWG 261000Z 26012KT 9999 SCT006 BKN015 M00/M02 Q0976
Observed
Jun-26 @ 10:00 UTC
Wind
  • 260° at 12 KTS
Visibility
10,000+ meters
Flight Rules
MVFR
Cloud Levels
  • Scattered at 600' AGL
  • Broken at 1,500' AGL
Temperature
C / 32°F
Dewpoint
-2°C / 28°F
Humidity
87%
Altimeter
28.82" Hg
Pressure
975.92 hPa